Time;durP1;ratioP1;P1;durP2;ratioP2;P2;SDS_P1;SDS_P2;PMS_P1;PMS_P2;Temp;Humidity;BMP_temperature;BMP_pressure;BME280_temperature;BME280_humidity;BME280_pressure;Samples;Min_cycle;Max_cycle;Signal;HPM_P1;HPM_P2
2022/02/19 00:00:37;;;;;;;5.93;1.02;;;;;;;10.54;39.29;99002.13;4962157;28;97039;-72
2022/02/19 00:03:05;;;;;;;6.57;1.33;;;;;;;10.94;38.35;99003.06;4960555;28;97876;-72
2022/02/19 00:05:33;;;;;;;7.82;1.40;;;;;;;11.28;37.86;98994.66;4954843;28;98062;-72
2022/02/19 00:08:01;;;;;;;7.97;0.95;;;;;;;10.86;38.08;98995.63;4968817;28;96845;-74
2022/02/19 00:10:27;;;;;;;12.55;1.45;;;;;;;10.50;38.03;99004.09;4958769;28;97011;-72
2022/02/19 00:12:53;;;;;;;6.20;0.80;;;;;;;10.82;37.66;98991.50;4959910;28;98213;-74
2022/02/19 00:15:20;;;;;;;5.78;0.90;;;;;;;10.26;38.81;99006.47;4960470;28;97792;-74
2022/02/19 00:17:46;;;;;;;5.40;0.73;;;;;;;10.37;39.30;99035.69;4962814;28;97166;-72
2022/02/19 00:20:14;;;;;;;9.63;1.08;;;;;;;10.73;38.88;99016.72;4955135;28;96831;-72
2022/02/19 00:22:42;;;;;;;9.57;1.23;;;;;;;10.51;39.31;99029.56;4957977;28;98333;-72
2022/02/19 00:25:09;;;;;;;7.13;1.05;;;;;;;10.58;39.29;99032.66;4954216;28;99344;-71
2022/02/19 00:27:37;;;;;;;7.90;1.20;;;;;;;10.43;40.10;99033.63;4957578;28;96983;-72
2022/02/19 00:30:04;;;;;;;4.63;0.90;;;;;;;10.94;39.61;99029.50;4957754;28;96831;-73
2022/02/19 00:32:30;;;;;;;6.25;1.20;;;;;;;11.14;39.06;99027.28;4966569;28;98935;-73
2022/02/19 00:34:57;;;;;;;8.73;0.80;;;;;;;10.89;39.21;99036.88;4963376;28;99056;-72
2022/02/19 00:37:26;;;;;;;16.67;1.30;;;;;;;10.43;40.04;99044.19;4959639;28;96797;-73
2022/02/19 00:39:53;;;;;;;4.50;0.80;;;;;;;10.95;39.12;99020.63;4956795;28;96871;-72
2022/02/19 00:42:20;;;;;;;3.58;0.90;;;;;;;10.62;39.14;99037.69;4953343;28;98312;-73
2022/02/19 00:44:46;;;;;;;8.23;1.17;;;;;;;10.87;39.32;99044.91;4953468;28;99155;-72
2022/02/19 00:47:13;;;;;;;3.90;0.93;;;;;;;10.69;38.95;99020.50;4955808;28;96905;-72
2022/02/19 00:49:42;;;;;;;6.45;1.33;;;;;;;10.50;39.61;99030.50;4946934;28;96839;-73
2022/02/19 00:52:08;;;;;;;6.13;1.35;;;;;;;10.43;39.60;99047.69;4952799;28;98865;-73
2022/02/19 00:54:35;;;;;;;16.15;1.70;;;;;;;10.45;39.27;99037.00;4952720;28;98203;-73
2022/02/19 00:57:03;;;;;;;7.40;1.02;;;;;;;10.20;40.03;99021.84;4956018;28;96865;-73
2022/02/19 00:59:31;;;;;;;4.30;0.90;;;;;;;10.18;39.63;99050.97;4956464;28;96780;-72
2022/02/19 01:01:57;;;;;;;7.18;1.30;;;;;;;10.54;39.02;99034.66;4953967;28;97917;-72
2022/02/19 01:04:24;;;;;;;8.00;1.30;;;;;;;10.20;39.08;99040.31;4957439;28;98901;-72
2022/02/19 01:06:50;;;;;;;7.63;1.00;;;;;;;10.43;38.63;99070.59;4954088;28;96799;-72
2022/02/19 01:09:20;;;;;;;12.60;1.52;;;;;;;9.83;39.90;99016.13;4956379;28;97674;-72
2022/02/19 01:11:52;;;;;;;14.45;2.35;;;;;;;10.18;38.44;99058.03;4950741;28;99417;-73
2022/02/19 01:14:20;;;;;;;11.52;1.73;;;;;;;9.89;38.11;99042.13;4954859;28;98991;-73
2022/02/19 01:16:46;;;;;;;11.05;1.48;;;;;;;10.11;37.71;99036.41;4954649;28;96729;-73
2022/02/19 01:19:13;;;;;;;10.13;1.45;;;;;;;10.34;37.41;99079.94;4962498;28;96976;-71
2022/02/19 01:21:39;;;;;;;7.55;1.30;;;;;;;10.32;37.20;99036.91;4954505;28;99163;-73
2022/02/19 01:24:06;;;;;;;7.80;1.40;;;;;;;10.26;37.05;99063.69;4964554;28;99582;-72
2022/02/19 01:26:33;;;;;;;7.60;1.48;;;;;;;9.82;36.96;99054.00;4956929;28;96850;-72
2022/02/19 01:29:01;;;;;;;12.15;1.70;;;;;;;10.08;37.05;99027.84;4962799;28;97156;-73
2022/02/19 01:31:29;;;;;;;14.95;1.50;;;;;;;10.21;36.15;99071.91;4955764;28;101883;-73
2022/02/19 01:33:56;;;;;;;12.13;1.40;;;;;;;9.93;36.78;99053.34;4956804;28;99062;-72
2022/02/19 01:36:23;;;;;;;13.68;1.83;;;;;;;9.97;35.74;99034.63;4955994;28;96643;-74
2022/02/19 01:38:49;;;;;;;9.15;1.42;;;;;;;9.98;35.47;99046.84;4962287;28;96828;-74
2022/02/19 01:41:16;;;;;;;8.73;1.63;;;;;;;10.23;35.48;99032.22;4952042;28;98910;-72
2022/02/19 01:43:43;;;;;;;7.13;1.42;;;;;;;10.37;35.37;99033.03;4959738;28;99242;-73
2022/02/19 01:46:10;;;;;;;9.00;1.42;;;;;;;9.87;35.06;99041.38;4956003;28;97281;-72
2022/02/19 01:48:38;;;;;;;8.75;1.45;;;;;;;10.01;34.70;99043.19;4955965;28;97261;-73
2022/02/19 01:51:04;;;;;;;14.63;2.00;;;;;;;10.11;34.81;99068.06;4953600;28;98989;-72
2022/02/19 01:53:32;;;;;;;8.02;1.60;;;;;;;9.73;35.19;99049.25;4955947;28;98172;-72
2022/02/19 01:55:59;;;;;;;10.20;1.30;;;;;;;9.73;35.19;99067.72;4952515;28;96680;-73
2022/02/19 01:58:26;;;;;;;17.52;2.05;;;;;;;10.02;34.39;99039.63;4965791;28;96790;-73
2022/02/19 02:00:52;;;;;;;8.57;1.90;;;;;;;10.17;34.20;99048.44;4955891;28;99034;-74
2022/02/19 02:03:19;;;;;;;11.05;1.67;;;;;;;9.87;34.49;99044.00;4961294;28;99988;-73
2022/02/19 02:08:20;;;;;;;7.90;1.48;;;;;;;9.48;34.69;99057.75;4970094;28;99063;-73
2022/02/19 02:10:47;;;;;;;11.20;2.28;;;;;;;9.98;34.24;99049.47;4969050;28;99407;-72
2022/02/19 02:13:13;;;;;;;9.75;2.00;;;;;;;9.72;34.59;99052.81;4972940;28;98844;-72
2022/02/19 02:15:40;;;;;;;11.20;2.53;;;;;;;9.89;34.02;99060.59;4973639;28;96897;-73
2022/02/19 02:18:07;;;;;;;6.22;1.23;;;;;;;10.24;34.04;99058.50;4981495;28;97084;-72
2022/02/19 02:20:34;;;;;;;12.13;2.03;;;;;;;10.53;33.45;99054.09;4979209;28;99019;-71
2022/02/19 02:23:02;;;;;;;12.55;2.33;;;;;;;10.03;33.45;99043.94;4979311;28;99149;-72
2022/02/19 02:25:32;;;;;;;11.77;1.92;;;;;;;9.94;34.02;99041.84;4979528;28;96754;-72
2022/02/19 02:27:59;;;;;;;21.05;2.05;;;;;;;9.56;34.13;99025.66;4982362;28;96830;-73
2022/02/19 02:30:26;;;;;;;12.23;1.80;;;;;;;9.89;33.76;99028.09;4978002;28;98925;-72
2022/02/19 02:32:52;;;;;;;8.20;1.80;;;;;;;10.10;32.88;99039.16;4981878;28;99355;-73
2022/02/19 02:35:19;;;;;;;10.77;2.00;;;;;;;10.10;33.65;99031.25;4978702;28;97092;-72
2022/02/19 02:37:46;;;;;;;9.68;1.70;;;;;;;10.25;33.79;99038.22;4979409;28;96831;-72
2022/02/19 02:40:14;;;;;;;9.90;1.50;;;;;;;10.19;33.08;99036.81;4975716;28;99131;-72
2022/02/19 02:42:40;;;;;;;9.80;1.65;;;;;;;10.37;32.73;99040.16;4978138;28;98877;-72
2022/02/19 02:45:08;;;;;;;14.07;1.70;;;;;;;10.23;32.88;99066.53;4978855;28;96974;-71
2022/02/19 02:47:36;;;;;;;9.48;1.30;;;;;;;9.92;33.19;99035.81;4979930;28;96922;-71
2022/02/19 02:50:03;;;;;;;9.77;1.30;;;;;;;9.89;33.07;99071.16;4977179;28;98716;-71
2022/02/19 02:52:29;;;;;;;8.32;1.50;;;;;;;10.19;32.81;99065.00;4980289;28;98933;-70
2022/02/19 02:54:57;;;;;;;6.70;1.10;;;;;;;10.26;32.64;99074.25;4979226;28;96815;-72
2022/02/19 02:57:24;;;;;;;13.30;1.38;;;;;;;9.81;33.27;99076.03;4975730;28;96843;-73
2022/02/19 02:59:57;;;;;;;16.58;2.03;;;;;;;9.42;33.71;99051.97;4970613;28;99491;-72
2022/02/19 03:02:24;;;;;;;10.10;1.17;;;;;;;9.61;33.37;99078.97;4981725;28;97751;-73
2022/02/19 03:04:51;;;;;;;10.13;1.83;;;;;;;9.93;33.34;99035.72;4970554;28;98404;-72
2022/02/19 03:07:17;;;;;;;5.00;1.35;;;;;;;9.93;33.31;99054.19;4977528;28;96937;-72
2022/02/19 03:09:49;;;;;;;9.75;1.50;;;;;;;9.48;33.75;99048.97;4974493;28;98280;-72
2022/02/19 03:12:16;;;;;;;8.02;2.17;;;;;;;9.81;33.64;99064.63;4968645;28;98881;-72
2022/02/19 03:14:43;;;;;;;7.95;1.52;;;;;;;9.98;32.89;99070.59;4970542;28;97256;-72
2022/02/19 03:17:10;;;;;;;9.80;1.67;;;;;;;10.03;33.06;99099.38;4980970;28;96764;-71
2022/02/19 03:19:36;;;;;;;13.68;1.88;;;;;;;9.67;33.14;99080.41;4972273;28;99023;-72
2022/02/19 03:22:03;;;;;;;6.80;1.40;;;;;;;9.91;33.47;99084.25;4982016;28;98356;-73
2022/02/19 03:24:29;;;;;;;9.48;1.88;;;;;;;9.64;33.87;99096.41;4978032;28;97565;-71
2022/02/19 03:26:58;;;;;;;13.98;1.42;;;;;;;9.57;33.72;99098.56;4981850;28;96828;-73
2022/02/19 03:29:25;;;;;;;10.55;1.73;;;;;;;9.53;33.96;99104.94;4975744;28;99020;-72
2022/02/19 03:31:52;;;;;;;4.72;1.13;;;;;;;9.52;34.32;99111.13;4985418;28;99240;-73
2022/02/19 03:34:19;;;;;;;14.27;1.50;;;;;;;9.76;33.53;99151.09;4972938;28;97161;-72
2022/02/19 03:36:45;;;;;;;14.13;1.50;;;;;;;9.33;34.06;99092.03;4981466;28;96826;-74
2022/02/19 03:39:12;;;;;;;11.38;1.40;;;;;;;9.43;34.79;99109.88;4971511;28;99103;-72
2022/02/19 03:41:38;;;;;;;6.45;1.98;;;;;;;9.48;34.18;99128.06;4974045;28;99083;-71
2022/02/19 03:44:05;;;;;;;9.20;1.80;;;;;;;9.63;33.97;99118.44;4972615;28;96699;-73
2022/02/19 03:46:32;;;;;;;4.78;1.00;;;;;;;9.59;34.00;99133.56;4978721;28;96816;-71
2022/02/19 03:49:02;;;;;;;10.13;1.48;;;;;;;9.28;34.52;99141.53;4983909;28;99638;-72
2022/02/19 03:51:28;;;;;;;9.07;1.35;;;;;;;9.46;34.33;99151.03;4994095;28;99370;-72
2022/02/19 03:53:54;;;;;;;6.95;1.13;;;;;;;9.77;34.42;99151.00;4993281;28;96773;-73
2022/02/19 03:56:21;;;;;;;13.10;1.33;;;;;;;9.73;34.16;99149.47;4989366;28;96853;-72
2022/02/19 03:58:49;;;;;;;8.18;1.25;;;;;;;9.93;33.94;99154.44;4997978;28;99239;-72
2022/02/19 04:01:16;;;;;;;8.52;1.92;;;;;;;9.87;34.18;99170.63;4996011;28;99012;-72
2022/02/19 04:03:42;;;;;;;8.45;1.40;;;;;;;9.78;34.46;99179.06;5001290;28;96728;-72
2022/02/19 04:06:10;;;;;;;9.25;1.38;;;;;;;9.34;35.21;99199.16;4988923;28;96774;-72
2022/02/19 04:08:37;;;;;;;8.43;1.35;;;;;;;9.62;34.63;99177.41;4998310;28;97106;-70
2022/02/19 04:11:05;;;;;;;15.23;1.38;;;;;;;9.77;34.93;99190.59;4987927;28;98726;-71
2022/02/19 04:13:31;;;;;;;9.88;1.40;;;;;;;9.57;35.24;99215.44;4981559;28;96670;-71
2022/02/19 04:15:58;;;;;;;10.57;1.42;;;;;;;9.71;35.17;99222.59;4985197;28;96928;-71
2022/02/19 04:18:25;;;;;;;6.75;1.17;;;;;;;9.71;35.04;99227.00;4988183;28;97868;-71
2022/02/19 04:20:51;;;;;;;8.00;1.38;;;;;;;9.71;35.13;99232.28;4989132;28;96904;-72
2022/02/19 04:23:19;;;;;;;10.27;1.55;;;;;;;9.59;36.03;99232.00;4984217;28;96718;-71
2022/02/19 04:25:45;;;;;;;8.63;1.70;;;;;;;9.68;36.66;99222.75;4977565;28;96820;-72
2022/02/19 04:28:12;;;;;;;8.70;1.58;;;;;;;9.71;37.31;99238.41;4976453;28;99072;-73
2022/02/19 04:30:38;;;;;;;13.45;1.58;;;;;;;9.57;38.16;99262.06;4971401;28;99109;-73
2022/02/19 04:33:05;;;;;;;9.50;1.48;;;;;;;8.69;40.90;99264.97;4975657;28;96768;-71
2022/02/19 04:35:32;;;;;;;11.23;1.70;;;;;;;9.09;40.34;99258.47;4974796;28;96806;-73
2022/02/19 04:37:59;;;;;;;7.35;1.25;;;;;;;9.32;39.95;99278.31;4970561;28;98836;-73
2022/02/19 04:40:26;;;;;;;6.70;1.20;;;;;;;9.22;40.44;99290.31;4975303;28;98916;-73
2022/02/19 04:42:53;;;;;;;8.52;1.33;;;;;;;8.93;41.44;99281.28;4995816;28;96750;-72
2022/02/19 04:45:19;;;;;;;47.38;2.63;;;;;;;8.64;42.28;99287.19;4984336;28;96782;-71
2022/02/19 04:47:48;;;;;;;6.38;1.50;;;;;;;9.02;42.02;99299.25;4990740;28;99294;-72
2022/02/19 04:50:16;;;;;;;11.82;1.30;;;;;;;8.91;42.27;99300.75;4981682;28;97622;-72
2022/02/19 04:52:43;;;;;;;7.85;1.42;;;;;;;9.28;41.88;99323.38;4984298;28;96800;-71
2022/02/19 04:55:12;;;;;;;8.80;1.48;;;;;;;9.41;41.26;99335.00;4983378;28;97920;-72
2022/02/19 04:57:43;;;;;;;11.85;1.27;;;;;;;9.60;41.30;99348.91;4984388;28;99181;-72
2022/02/19 05:00:10;;;;;;;11.82;1.23;;;;;;;9.22;42.48;99339.53;4975123;28;99410;-72
2022/02/19 05:02:37;;;;;;;14.27;1.55;;;;;;;8.74;43.02;99347.22;4982542;28;96734;-72
2022/02/19 05:05:03;;;;;;;14.35;1.85;;;;;;;8.94;43.08;99346.22;4982765;28;97494;-73
2022/02/19 05:07:30;;;;;;;6.50;1.33;;;;;;;9.04;42.73;99379.09;4981729;28;99167;-73
2022/02/19 05:09:58;;;;;;;8.60;1.73;;;;;;;9.07;43.08;99383.31;4980569;28;99031;-72
2022/02/19 05:12:24;;;;;;;5.55;1.23;;;;;;;9.11;42.59;99382.25;4971807;28;96771;-72
2022/02/19 05:14:55;;;;;;;4.30;1.02;;;;;;;8.97;43.35;99393.50;4981505;28;97104;-71
2022/02/19 05:17:22;;;;;;;5.57;1.30;;;;;;;8.96;43.61;99399.69;4977258;28;98939;-72
2022/02/19 05:19:50;;;;;;;8.38;1.52;;;;;;;9.28;42.58;99407.72;4977015;28;99315;-72
2022/02/19 05:22:17;;;;;;;13.25;2.28;;;;;;;9.31;42.54;99413.72;4980253;28;97219;-72
2022/02/19 05:24:43;;;;;;;9.75;1.25;;;;;;;9.18;42.85;99408.22;4978315;28;96885;-71
2022/02/19 05:27:10;;;;;;;11.95;1.60;;;;;;;9.06;43.44;99436.94;4980362;28;98918;-72
2022/02/19 05:29:36;;;;;;;7.15;1.08;;;;;;;8.73;43.51;99399.97;4980693;28;98916;-71
2022/02/19 05:32:08;;;;;;;7.30;1.17;;;;;;;8.40;44.67;99411.19;4972922;28;97583;-72
2022/02/19 05:34:35;;;;;;;11.07;1.27;;;;;;;8.76;44.27;99450.72;4979042;28;96816;-71
2022/02/19 05:37:01;;;;;;;8.55;1.20;;;;;;;8.76;44.11;99458.63;4974071;28;98796;-72
2022/02/19 05:39:27;;;;;;;8.38;1.08;;;;;;;9.03;43.73;99495.94;4976854;28;99214;-71
2022/02/19 05:41:54;;;;;;;7.15;1.30;;;;;;;9.05;43.84;99478.28;4984595;28;96727;-71
2022/02/19 05:44:20;;;;;;;6.75;0.98;;;;;;;8.84;44.44;99504.81;4987002;28;96734;-72
2022/02/19 05:46:47;;;;;;;8.55;1.20;;;;;;;8.57;44.87;99492.03;4981321;28;99045;-71
2022/02/19 05:49:14;;;;;;;6.25;1.10;;;;;;;8.54;45.28;99494.78;4976851;28;98218;-72
2022/02/19 05:51:45;;;;;;;6.40;1.00;;;;;;;8.82;45.00;99533.84;4982478;28;96819;-72
2022/02/19 05:54:12;;;;;;;6.72;1.30;;;;;;;8.34;46.67;99505.38;4977576;28;97065;-71
2022/02/19 05:56:40;;;;;;;8.18;1.40;;;;;;;8.87;45.35;99552.06;4981807;28;96910;-72
2022/02/19 05:59:07;;;;;;;10.82;1.50;;;;;;;8.73;45.66;99537.75;4979611;28;98844;-71
2022/02/19 06:01:33;;;;;;;7.28;0.93;;;;;;;8.76;45.71;99549.94;4980911;28;96695;-72
2022/02/19 06:04:00;;;;;;;7.43;1.15;;;;;;;8.14;47.48;99544.91;4978634;28;97116;-72
2022/02/19 06:06:27;;;;;;;3.72;0.90;;;;;;;8.08;48.12;99560.94;4977774;28;99313;-72
2022/02/19 06:08:54;;;;;;;5.95;1.38;;;;;;;8.51;47.09;99560.78;4973523;28;99098;-71
2022/02/19 06:11:20;;;;;;;7.07;1.45;;;;;;;8.73;46.59;99579.91;4975176;28;96628;-71
2022/02/19 06:13:51;;;;;;;5.78;1.10;;;;;;;8.71;46.48;99604.63;4977512;28;96874;-71
2022/02/19 06:16:17;;;;;;;7.13;1.40;;;;;;;9.17;46.22;99629.69;4983289;28;99730;-71
2022/02/19 06:18:43;;;;;;;8.15;1.35;;;;;;;9.19;45.94;99610.22;4976661;28;99083;-71
2022/02/19 06:21:10;;;;;;;4.35;1.00;;;;;;;8.45;47.35;99618.09;4979492;28;99487;-73
2022/02/19 06:23:37;;;;;;;7.90;1.20;;;;;;;8.62;47.40;99641.91;4977026;28;97350;-72
2022/02/19 06:26:04;;;;;;;7.22;1.35;;;;;;;8.86;47.25;99651.31;4982168;28;100432;-71
2022/02/19 06:28:30;;;;;;;4.63;1.13;;;;;;;8.84;46.98;99650.53;4976416;28;99254;-72
2022/02/19 06:30:57;;;;;;;7.15;1.17;;;;;;;8.50;47.55;99656.47;4979565;28;96862;-72
2022/02/19 06:33:23;;;;;;;8.02;1.27;;;;;;;8.64;47.69;99658.50;4973349;28;96772;-72
2022/02/19 06:35:51;;;;;;;5.10;0.95;;;;;;;8.53;47.48;99679.19;4972031;28;100352;-71
2022/02/19 06:38:17;;;;;;;5.68;1.20;;;;;;;8.50;48.19;99676.66;4964378;28;100324;-72
2022/02/19 06:40:45;;;;;;;5.45;1.27;;;;;;;8.63;47.52;99706.81;4969377;28;97154;-71
2022/02/19 06:43:11;;;;;;;4.03;1.10;;;;;;;8.58;47.71;99707.03;4974839;28;97855;-71
2022/02/19 06:45:38;;;;;;;7.00;1.38;;;;;;;8.66;47.51;99699.63;4975868;28;98105;-71
2022/02/19 06:48:08;;;;;;;7.05;1.58;;;;;;;8.29;48.65;99718.75;4978938;28;97819;-72
2022/02/19 06:50:35;;;;;;;3.90;0.80;;;;;;;8.62;47.91;99720.91;4975694;28;97296;-73
2022/02/19 06:53:04;;;;;;;6.45;0.95;;;;;;;8.34;48.51;99734.38;4977691;28;96728;-71
2022/02/19 06:55:33;;;;;;;9.10;1.10;;;;;;;8.30;48.75;99722.25;4980162;28;99624;-73
2022/02/19 06:58:00;;;;;;;4.82;0.82;;;;;;;8.59;48.03;99734.22;4977588;28;99135;-71
2022/02/19 07:00:27;;;;;;;3.70;0.85;;;;;;;8.31;48.86;99748.53;4980600;28;96838;-72
2022/02/19 07:02:53;;;;;;;8.68;0.80;;;;;;;7.82;50.40;99756.69;4989491;28;97075;-71
2022/02/19 07:05:21;;;;;;;2.67;0.95;;;;;;;8.11;49.73;99764.28;4978776;28;101048;-72
2022/02/19 07:07:48;;;;;;;4.57;0.65;;;;;;;8.26;49.51;99770.69;4987501;28;102177;-73
2022/02/19 07:10:14;;;;;;;5.22;1.00;;;;;;;8.94;47.92;99770.38;4974662;28;96823;-72
2022/02/19 07:12:41;;;;;;;6.68;0.88;;;;;;;8.71;47.86;99778.44;4974280;28;96975;-73
2022/02/19 07:15:10;;;;;;;6.22;0.77;;;;;;;8.95;47.62;99779.16;4975515;28;99204;-71
2022/02/19 07:17:46;;;;;;;5.68;0.63;;;;;;;8.65;48.59;99799.78;4977248;28;98972;-72
2022/02/19 07:20:13;;;;;;;6.05;0.70;;;;;;;8.57;48.87;99815.03;4975478;28;96742;-72
2022/02/19 07:22:39;;;;;;;1.42;0.60;;;;;;;8.04;50.49;99799.63;4981936;28;97176;-72
2022/02/19 07:25:06;;;;;;;4.10;0.77;;;;;;;8.68;49.58;99818.06;4975422;28;99045;-72
2022/02/19 07:27:37;;;;;;;3.10;0.70;;;;;;;8.19;50.29;99811.34;4974704;28;99050;-71
2022/02/19 07:30:03;;;;;;;2.83;0.60;;;;;;;8.40;49.68;99826.28;4974406;28;96646;-71
2022/02/19 07:32:31;;;;;;;1.63;0.47;;;;;;;8.96;48.10;99828.28;4971412;28;97211;-71
2022/02/19 07:34:59;;;;;;;2.72;0.70;;;;;;;8.40;49.20;99873.69;4964262;28;99308;-71
2022/02/19 07:37:25;;;;;;;6.50;1.58;;;;;;;8.36;49.66;99846.59;4981692;28;97547;-72
2022/02/19 07:39:52;;;;;;;2.22;0.60;;;;;;;8.51;49.40;99874.09;4977492;28;96715;-72
2022/02/19 07:42:18;;;;;;;3.90;0.80;;;;;;;8.67;49.40;99888.31;4977976;28;97120;-73
2022/02/19 07:44:44;;;;;;;6.63;1.10;;;;;;;8.82;48.98;99875.44;4977832;28;99025;-72
2022/02/19 07:47:11;;;;;;;4.00;0.80;;;;;;;8.70;48.77;99885.56;4983763;28;99002;-73
2022/02/19 08:00:35;;;;;;;4.88;0.90;;;;;;;8.68;49.02;99941.84;4974062;28;96864;-72
2022/02/19 08:03:01;;;;;;;1.83;0.47;;;;;;;8.86;49.06;99951.63;4980605;28;96987;-71
2022/02/19 08:05:29;;;;;;;3.08;0.88;;;;;;;8.49;49.73;99947.00;4972720;28;99089;-73
2022/02/19 08:07:56;;;;;;;5.60;0.82;;;;;;;8.38;49.96;99952.69;4988260;22;98997;-78
2022/02/19 08:10:22;;;;;;;4.93;1.10;;;;;;;8.80;48.73;99957.16;4971922;28;96964;-80
2022/02/19 08:12:49;;;;;;;5.13;0.98;;;;;;;8.63;49.81;99972.78;4968928;28;96906;-77
2022/02/19 08:15:15;;;;;;;4.28;0.90;;;;;;;9.16;47.92;99960.94;4975150;28;99436;-78
2022/02/19 08:17:41;;;;;;;4.85;1.15;;;;;;;9.40;47.79;99988.03;4973546;28;97799;-78
2022/02/19 08:20:09;;;;;;;3.03;0.75;;;;;;;9.30;47.72;100006.94;4970016;28;96931;-78
2022/02/19 08:22:36;;;;;;;5.45;0.60;;;;;;;8.83;48.33;100001.84;4967285;28;97635;-79
2022/02/19 08:25:04;;;;;;;8.15;1.00;;;;;;;8.63;49.25;100013.16;4965419;28;100117;-79
2022/02/19 08:27:34;;;;;;;4.22;0.60;;;;;;;8.73;48.96;100013.63;4963061;28;99100;-79
2022/02/19 08:30:01;;;;;;;5.78;1.00;;;;;;;8.68;49.23;100041.94;4958259;28;97056;-78
2022/02/19 08:32:27;;;;;;;2.58;0.70;;;;;;;8.90;48.54;100060.41;4957417;28;96845;-79
2022/02/19 08:34:55;;;;;;;2.72;0.70;;;;;;;8.91;48.79;100060.34;4961767;28;99123;-79
2022/02/19 08:37:22;;;;;;;8.57;0.98;;;;;;;9.15;48.60;100074.31;4960717;28;98837;-79
2022/02/19 08:39:50;;;;;;;5.95;0.70;;;;;;;9.04;49.30;100058.09;4961135;28;96782;-79
2022/02/19 08:42:16;;;;;;;4.57;0.63;;;;;;;8.80;49.30;100054.63;4967351;28;97394;-78
2022/02/19 08:44:43;;;;;;;2.35;0.50;;;;;;;8.59;50.45;100084.44;4963138;28;101749;-77
2022/02/19 08:47:09;;;;;;;5.22;0.90;;;;;;;9.24;49.51;100073.97;4969237;28;98013;-79
2022/02/19 08:49:36;;;;;;;4.25;0.93;;;;;;;8.98;49.52;100095.22;4975491;28;96706;-78
2022/02/19 08:52:03;;;;;;;7.40;1.05;;;;;;;9.44;48.77;100096.88;4961772;28;96859;-80
2022/02/19 08:54:30;;;;;;;5.38;0.85;;;;;;;8.92;49.80;100116.53;4972009;28;98951;-80
2022/02/19 08:56:58;;;;;;;5.20;0.90;;;;;;;8.84;50.20;100121.25;4957003;28;101661;-78
2022/02/19 08:59:24;;;;;;;5.45;0.82;;;;;;;9.17;49.47;100115.53;4962019;28;97154;-76
2022/02/19 09:01:50;;;;;;;2.70;0.70;;;;;;;8.52;51.25;100120.69;4967864;28;96965;-76
2022/02/19 09:04:17;;;;;;;4.22;0.93;;;;;;;8.51;51.42;100144.44;4977600;28;98966;-79
2022/02/19 09:06:43;;;;;;;4.32;1.02;;;;;;;8.84;51.00;100151.09;4971485;28;98001;-77
2022/02/19 09:09:10;;;;;;;3.40;1.15;;;;;;;8.68;51.26;100156.06;4971973;28;97274;-77
2022/02/19 09:11:37;;;;;;;3.75;1.02;;;;;;;8.51;52.02;100170.75;4958447;28;96796;-77
2022/02/19 09:14:05;;;;;;;6.28;1.10;;;;;;;8.80;52.35;100167.91;4976496;28;98980;-78
2022/02/19 09:16:34;;;;;;;3.40;0.88;;;;;;;8.71;52.54;100184.06;4976257;28;99259;-78
2022/02/19 09:19:00;;;;;;;6.32;1.50;;;;;;;8.34;53.73;100197.69;4978384;28;97332;-78
2022/02/19 09:21:28;;;;;;;5.25;1.30;;;;;;;8.47;53.31;100192.88;4974802;28;96754;-79
2022/02/19 09:23:54;;;;;;;4.40;1.35;;;;;;;8.41;53.25;100196.53;4967212;28;99622;-77
2022/02/19 09:26:20;;;;;;;6.80;1.00;;;;;;;9.27;51.73;100199.50;4959479;28;99191;-77
2022/02/19 09:28:47;;;;;;;4.55;0.90;;;;;;;9.37;51.25;100224.63;4961085;28;97779;-78
2022/02/19 09:31:15;;;;;;;3.20;0.75;;;;;;;9.48;51.16;100209.22;4967318;28;97706;-76
2022/02/19 09:33:41;;;;;;;5.43;0.90;;;;;;;9.10;52.25;100224.75;4961215;28;99098;-80
2022/02/19 09:36:08;;;;;;;9.43;1.02;;;;;;;8.61;54.04;100227.44;4957115;28;98911;-78
2022/02/19 09:38:34;;;;;;;6.63;1.15;;;;;;;9.13;53.04;100234.28;4967975;28;97520;-78
2022/02/19 09:41:02;;;;;;;6.72;1.13;;;;;;;9.01;53.41;100240.91;4958109;28;98607;-80
2022/02/19 09:43:29;;;;;;;3.97;1.08;;;;;;;8.37;55.59;100260.75;4960724;28;99321;-78
2022/02/19 09:45:55;;;;;;;9.07;1.45;;;;;;;8.96;54.99;100249.88;4966623;28;99144;-78
2022/02/19 09:48:23;;;;;;;4.00;1.02;;;;;;;8.97;53.77;100244.56;4958718;28;100365;-80
2022/02/19 09:50:51;;;;;;;8.40;1.35;;;;;;;9.18;52.94;100264.88;4965512;28;97029;-78
2022/02/19 09:53:18;;;;;;;5.75;1.50;;;;;;;9.19;51.33;100269.19;4961789;28;97918;-77
2022/02/19 09:55:44;;;;;;;6.53;1.42;;;;;;;9.38;51.67;100284.34;4959323;28;99391;-77
2022/02/19 09:58:10;;;;;;;8.48;1.27;;;;;;;8.66;51.59;100291.38;4957311;28;97143;-80
2022/02/19 10:00:39;;;;;;;4.75;0.93;;;;;;;8.43;52.90;100281.63;4959538;28;96810;-78
2022/02/19 10:03:11;;;;;;;7.53;1.20;;;;;;;9.01;50.85;100298.88;4959242;28;99018;-79
2022/02/19 10:05:39;;;;;;;8.48;1.33;;;;;;;8.65;51.28;100310.72;4963549;28;99415;-79
2022/02/19 10:08:07;;;;;;;4.88;1.00;;;;;;;8.80;51.12;100307.53;4961197;28;96688;-78
2022/02/19 10:10:35;;;;;;;5.18;1.20;;;;;;;9.15;50.27;100322.97;4962306;28;97138;-78
2022/02/19 10:13:02;;;;;;;7.70;0.98;;;;;;;9.21;50.33;100327.13;4958459;28;99324;-79
2022/02/19 10:15:39;;;;;;;7.53;1.27;;;;;;;8.96;50.56;100337.72;4957115;28;99017;-79
2022/02/19 10:18:24;;;;;;;4.82;1.10;;;;;;;9.45;49.48;100338.59;4953968;28;96828;-78
2022/02/19 10:20:53;;;;;;;13.35;1.92;;;;;;;9.58;49.48;100334.56;4958048;28;96966;-78
2022/02/19 10:23:19;;;;;;;9.32;1.30;;;;;;;9.12;49.47;100332.75;4964142;28;99523;-78
2022/02/19 10:26:00;;;;;;;8.57;1.50;;;;;;;9.42;48.37;100336.03;4955542;28;99015;-79
2022/02/19 10:28:26;;;;;;;6.43;1.25;;;;;;;8.94;48.89;100339.53;4958624;28;97392;-79
2022/02/19 10:30:52;;;;;;;7.93;1.27;;;;;;;9.48;47.34;100356.91;4962366;28;96904;-78
2022/02/19 10:33:24;;;;;;;8.88;1.20;;;;;;;8.70;48.61;100377.28;4959859;28;96747;-80
2022/02/19 10:35:52;;;;;;;8.18;1.20;;;;;;;8.98;47.94;100372.78;4958824;28;99336;-80
2022/02/19 10:38:19;;;;;;;10.35;1.05;;;;;;;9.42;46.78;100371.19;4963982;28;97016;-77
2022/02/19 10:40:47;;;;;;;5.78;1.10;;;;;;;9.48;46.49;100378.88;4965803;28;96887;-80
2022/02/19 10:43:16;;;;;;;7.25;1.05;;;;;;;9.68;45.73;100388.69;4954274;28;99064;-77
2022/02/19 10:45:52;;;;;;;5.13;0.93;;;;;;;8.83;47.44;100393.53;4962419;28;99122;-79
2022/02/19 10:48:22;;;;;;;7.35;1.30;;;;;;;9.42;45.74;100375.59;4954854;28;97040;-77
2022/02/19 10:50:49;;;;;;;6.07;1.42;;;;;;;9.43;46.01;100385.25;4966350;28;96943;-77
2022/02/19 10:53:27;;;;;;;9.57;1.02;;;;;;;9.85;44.60;100422.34;4953437;28;99389;-78
2022/02/19 10:55:56;;;;;;;8.27;1.27;;;;;;;8.99;46.95;100418.44;4964714;28;99049;-77
2022/02/19 10:58:23;;;;;;;9.50;1.30;;;;;;;9.22;46.10;100405.31;4954424;28;96827;-76
2022/02/19 11:00:49;;;;;;;5.57;1.08;;;;;;;9.53;45.41;100420.91;4976487;28;96893;-76
2022/02/19 11:03:17;;;;;;;4.57;0.80;;;;;;;10.08;44.51;100426.75;4965784;28;99667;-77
2022/02/19 11:05:44;;;;;;;6.18;1.25;;;;;;;9.39;45.83;100417.88;4959457;28;99227;-80
2022/02/19 11:08:10;;;;;;;6.15;1.10;;;;;;;9.43;45.73;100451.16;4956250;28;97553;-78
2022/02/19 11:10:38;;;;;;;6.63;1.10;;;;;;;9.31;46.11;100426.09;4960273;28;96895;-77
2022/02/19 11:13:05;;;;;;;7.57;1.45;;;;;;;9.75;45.58;100419.19;4968697;28;101688;-79
2022/02/19 11:15:31;;;;;;;6.22;1.20;;;;;;;9.59;45.84;100433.84;4961362;28;99028;-78
2022/02/19 11:17:58;;;;;;;8.10;1.30;;;;;;;9.92;44.53;100431.75;4969992;28;96830;-80
2022/02/19 11:20:25;;;;;;;8.98;1.58;;;;;;;9.95;44.60;100440.44;4964316;28;96695;-79
2022/02/19 11:22:54;;;;;;;9.60;1.55;;;;;;;10.58;43.90;100448.56;4966192;28;99097;-78
2022/02/19 11:25:23;;;;;;;6.25;1.33;;;;;;;10.49;43.29;100448.97;4961264;28;98093;-79
2022/02/19 11:27:59;;;;;;;11.80;1.38;;;;;;;10.41;43.85;100445.75;4957240;28;97273;-79
2022/02/19 11:30:29;;;;;;;9.20;1.52;;;;;;;10.42;43.81;100447.47;4958652;28;96784;-77
2022/02/19 11:32:57;;;;;;;7.75;1.30;;;;;;;10.24;43.59;100460.47;4955404;28;99188;-79
2022/02/19 11:35:35;;;;;;;10.07;1.63;;;;;;;9.92;44.18;100463.44;4958164;28;99072;-78
2022/02/19 11:38:02;;;;;;;14.57;1.90;;;;;;;10.44;42.85;100453.53;4952439;28;96843;-77
2022/02/19 11:40:44;;;;;;;9.18;1.48;;;;;;;11.16;41.28;100458.47;4952718;28;96786;-77
2022/02/19 11:43:32;;;;;;;9.82;1.75;;;;;;;10.45;42.03;100452.63;4953101;28;99091;-80
2022/02/19 11:46:01;;;;;;;13.57;1.48;;;;;;;10.77;40.64;100462.75;4952984;28;97737;-79
2022/02/19 11:48:29;;;;;;;13.32;1.98;;;;;;;11.04;40.18;100455.47;4962215;28;96802;-77